Time;durP1;ratioP1;P1;durP2;ratioP2;P2;SDS_P1;SDS_P2;PMS_P1;PMS_P2;Temp;Humidity;BMP_temperature;BMP_pressure;BME280_temperature;BME280_humidity;BME280_pressure;Samples;Min_cycle;Max_cycle;Signal;HPM_P1;HPM_P2
2021/07/16 00:01:33;;;;;;;;;8.67;8.67;;;;;22.06;52.28;101568.50;5073482;27;45300;-51
2021/07/16 00:03:59;;;;;;;;;9.33;9.33;;;;;22.07;51.94;101563.97;5080364;27;48150;-49
2021/07/16 00:06:25;;;;;;;;;9.50;9.50;;;;;22.06;52.33;101565.81;5080469;27;45389;-48
2021/07/16 00:08:50;;;;;;;;;9.00;9.00;;;;;22.05;51.98;101558.63;5081036;27;45703;-49
2021/07/16 00:11:16;;;;;;;;;10.75;10.75;;;;;22.04;52.32;101562.28;5080586;27;45376;-48
2021/07/16 00:13:41;;;;;;;;;11.33;11.33;;;;;22.02;52.47;101559.66;5080550;27;47124;-50
2021/07/16 00:16:07;;;;;;;;;12.50;11.50;;;;;22.04;52.21;101556.88;5078857;27;45510;-50
2021/07/16 00:18:33;;;;;;;;;10.33;10.33;;;;;22.06;52.09;101556.81;5078224;27;45628;-50
2021/07/16 00:21:01;;;;;;;;;12.75;12.75;;;;;22.04;52.27;101556.88;5062332;28;45350;-49
2021/07/16 00:23:27;;;;;;;;;14.00;13.00;;;;;22.04;52.76;101556.88;5058570;28;47670;-51
2021/07/16 00:25:53;;;;;;;;;12.25;10.50;;;;;22.08;52.53;101555.78;5075653;27;45306;-49
2021/07/16 00:28:19;;;;;;;;;11.75;10.25;;;;;22.08;52.18;101561.19;5080248;27;45273;-50
2021/07/16 00:30:45;;;;;;;;;12.25;12.25;;;;;22.09;52.72;101559.34;5080033;27;45538;-48
2021/07/16 00:33:11;;;;;;;;;8.33;7.33;;;;;22.08;52.25;101555.78;5061777;28;48377;-50
2021/07/16 00:35:36;;;;;;;;;9.67;9.67;;;;;22.08;52.29;101549.50;5080288;27;45714;-50
2021/07/16 00:38:02;;;;;;;;;11.67;10.67;;;;;22.05;52.23;101550.50;5078335;27;45379;-51
2021/07/16 00:40:28;;;;;;;;;14.00;12.00;;;;;22.05;52.64;101553.22;5061790;28;45343;-48
2021/07/16 00:42:54;;;;;;;;;14.00;13.50;;;;;22.03;52.90;101560.53;5079357;27;48571;-51
2021/07/16 00:45:20;;;;;;;;;7.67;7.67;;;;;22.03;52.57;101564.13;5073819;27;45365;-48
2021/07/16 00:47:46;;;;;;;;;10.67;10.67;;;;;22.03;52.74;101564.13;5078007;27;45314;-51
2021/07/16 00:50:26;;;;;;;;;12.75;12.75;;;;;22.02;52.60;101556.97;5061796;28;45521;-46
2021/07/16 00:52:54;;;;;;;;;12.00;12.00;;;;;22.01;53.12;101560.63;5061420;28;47267;-50
2021/07/16 00:55:21;;;;;;;;;10.50;10.00;;;;;21.98;52.67;101565.34;5061657;27;45334;-48
2021/07/16 00:57:46;;;;;;;;;3.75;3.75;;;;;21.96;52.58;101567.22;5079807;27;45712;-50
2021/07/16 01:00:13;;;;;;;;;10.25;10.00;;;;;21.96;52.80;101564.53;5079616;27;45424;-48
2021/07/16 01:02:39;;;;;;;;;9.50;8.75;;;;;21.92;53.39;101563.84;5071603;27;47770;-51
2021/07/16 01:05:07;;;;;;;;;11.50;10.50;;;;;21.90;53.29;101548.69;5077992;27;45441;-50
2021/07/16 01:07:32;;;;;;;;;9.75;9.75;;;;;21.89;52.94;101563.16;5079552;27;45690;-46
2021/07/16 01:09:58;;;;;;;;;12.00;12.00;;;;;21.87;53.25;101565.94;5060913;28;45887;-51
2021/07/16 01:12:24;;;;;;;;;11.00;11.00;;;;;21.88;53.09;101569.50;5061053;28;47079;-48
2021/07/16 01:14:51;;;;;;;;;10.67;10.67;;;;;21.88;53.58;101564.09;5060741;27;45902;-50
2021/07/16 01:17:17;;;;;;;;;10.33;10.00;;;;;21.84;53.18;101571.50;5079228;28;45370;-52
2021/07/16 01:19:45;;;;;;;;;10.00;10.00;;;;;21.82;53.60;101573.41;5079136;27;45727;-50
2021/07/16 01:22:13;;;;;;;;;10.25;10.25;;;;;21.83;53.54;101567.03;5079095;27;47409;-51
2021/07/16 01:24:39;;;;;;;;;8.67;8.67;;;;;21.83;53.71;101572.44;5078408;27;45337;-48
2021/07/16 01:27:04;;;;;;;;;10.33;10.33;;;;;21.82;53.65;101575.25;5057662;28;45432;-49
2021/07/16 01:29:30;;;;;;;;;10.33;10.33;;;;;21.81;53.93;101568.97;5078606;28;45334;-49
2021/07/16 01:31:56;;;;;;;;;9.00;9.00;;;;;21.80;53.46;101577.16;5078911;27;45751;-48
2021/07/16 01:34:22;;;;;;;;;9.00;9.00;;;;;21.80;54.00;101566.34;5078856;27;45875;-48
2021/07/16 01:36:47;;;;;;;;;8.67;8.67;;;;;21.79;53.79;101572.72;5078990;28;45408;-51
2021/07/16 01:39:13;;;;;;;;;11.00;11.00;;;;;21.78;53.97;101577.25;5060297;27;45761;-50
2021/07/16 01:41:38;;;;;;;;;9.00;9.00;;;;;21.79;53.79;101570.00;5060624;28;47315;-50
2021/07/16 01:44:06;;;;;;;;;6.33;6.33;;;;;21.80;54.20;101578.03;5073813;27;46038;-52
2021/07/16 01:46:32;;;;;;;;;8.67;8.67;;;;;21.78;54.20;101579.06;5075256;27;45346;-50
2021/07/16 01:48:58;;;;;;;;;11.33;9.67;;;;;21.75;54.12;101574.72;5076437;28;45402;-48
2021/07/16 01:51:24;;;;;;;;;8.00;8.00;;;;;21.73;53.79;101576.63;5078440;28;46949;-48
2021/07/16 01:53:50;;;;;;;;;10.00;10.00;;;;;21.72;53.86;101578.47;5078298;27;45562;-51
2021/07/16 01:56:18;;;;;;;;;11.00;10.00;;;;;21.70;54.50;101574.06;5078984;28;45287;-49
2021/07/16 01:58:43;;;;;;;;;11.33;9.67;;;;;21.68;54.42;101576.88;5078735;27;45574;-48
2021/07/16 02:01:14;;;;;;;;;8.00;8.00;;;;;21.69;53.88;101575.03;5060339;28;45372;-48
2021/07/16 02:03:42;;;;;;;;;9.75;8.75;;;;;21.71;54.35;101567.72;5078530;28;46102;-49
2021/07/16 02:06:07;;;;;;;;;9.25;9.25;;;;;21.69;53.83;101569.63;5078718;28;45339;-48
2021/07/16 02:08:33;;;;;;;;;10.00;10.00;;;;;21.68;54.02;101573.28;5078401;28;45445;-48
2021/07/16 02:10:58;;;;;;;;;7.33;7.33;;;;;21.68;54.46;101566.06;5078508;27;47367;-49
2021/07/16 02:13:24;;;;;;;;;9.75;9.50;;;;;21.68;54.43;101567.91;5078139;27;45665;-51
2021/07/16 02:15:51;;;;;;;;;8.25;8.25;;;;;21.66;54.66;101559.88;5078732;28;45430;-48
2021/07/16 02:18:19;;;;;;;;;11.00;8.00;;;;;21.64;54.05;101561.78;5077218;27;45468;-51
2021/07/16 02:20:44;;;;;;;;;8.00;8.00;;;;;21.62;54.29;101563.72;5081628;27;47467;-48
2021/07/16 02:23:18;;;;;;;;;12.75;10.00;;;;;21.60;54.54;101557.53;5081848;27;45286;-52
2021/07/16 02:25:44;;;;;;;;;9.00;7.75;;;;;21.59;54.74;101558.44;5082223;27;45396;-51
2021/07/16 02:28:22;;;;;;;;;7.00;7.00;;;;;21.58;54.27;101556.72;5060397;28;45445;-50
2021/07/16 02:30:49;;;;;;;;;10.25;9.50;;;;;21.58;54.40;101558.53;5077916;27;47144;-50
2021/07/16 02:33:15;;;;;;;;;7.00;7.00;;;;;21.56;54.71;101552.34;5081936;27;45354;-50
2021/07/16 02:35:44;;;;;;;;;9.25;8.00;;;;;21.54;55.00;101559.66;5081606;27;45409;-49
2021/07/16 02:38:09;;;;;;;;;8.00;8.00;;;;;21.54;54.74;101556.97;5079598;27;45619;-49
2021/07/16 02:40:35;;;;;;;;;9.50;8.75;;;;;21.53;54.76;101560.63;5063241;27;48249;-51
2021/07/16 02:43:02;;;;;;;;;8.00;8.00;;;;;21.52;54.49;101558.88;5060435;28;45346;-49
2021/07/16 02:45:28;;;;;;;;;6.00;6.00;;;;;21.49;54.64;101553.66;5061830;27;45365;-48
2021/07/16 02:47:53;;;;;;;;;7.50;7.50;;;;;21.47;54.94;101561.84;5079576;27;45289;-52
2021/07/16 02:50:31;;;;;;;;;8.00;7.75;;;;;21.47;55.09;101561.84;5081543;27;47273;-48
2021/07/16 02:52:57;;;;;;;;;10.75;8.25;;;;;21.48;55.24;101558.19;5081732;27;45389;-51
2021/07/16 02:55:23;;;;;;;;;8.25;8.00;;;;;21.51;54.88;101560.72;5081833;27;45370;-52
2021/07/16 02:57:50;;;;;;;;;7.00;7.00;;;;;21.50;55.17;101563.50;5081923;27;45278;-48
2021/07/16 03:00:27;;;;;;;;;6.33;6.00;;;;;21.49;54.96;101556.34;5081378;27;47592;-50
2021/07/16 03:02:53;;;;;;;;;6.75;6.75;;;;;21.49;55.01;101557.22;5073593;27;46045;-50
2021/07/16 03:05:24;;;;;;;;;8.67;6.00;;;;;21.48;55.56;101560.88;5081499;27;45519;-51
2021/07/16 03:07:51;;;;;;;;;9.25;8.50;;;;;21.48;55.13;101562.72;5081490;27;45453;-50
2021/07/16 03:10:38;;;;;;;;;9.00;7.67;;;;;21.47;55.21;101566.34;5081415;27;46167;-47
2021/07/16 03:13:12;;;;;;;;;7.00;7.00;;;;;21.44;55.86;101567.38;5080926;27;45319;-51
2021/07/16 03:15:37;;;;;;;;;9.25;9.25;;;;;21.42;55.33;101564.78;5081703;27;45269;-51
2021/07/16 03:18:04;;;;;;;;;9.00;9.00;;;;;21.42;55.46;101566.59;5081546;27;45497;-51
2021/07/16 03:20:33;;;;;;;;;7.75;7.75;;;;;21.42;55.94;101558.50;5063636;28;47932;-48
2021/07/16 03:22:59;;;;;;;;;6.00;6.00;;;;;21.43;56.17;101560.25;5081394;27;45756;-52
2021/07/16 03:25:27;;;;;;;;;9.00;7.00;;;;;21.44;55.58;101561.97;5063196;28;45343;-50
2021/07/16 03:27:52;;;;;;;;;8.00;8.00;;;;;21.43;55.67;101571.91;5062567;28;45620;-46
2021/07/16 03:30:21;;;;;;;;;8.50;7.25;;;;;21.41;55.67;101567.56;5081238;27;46354;-48
2021/07/16 03:32:47;;;;;;;;;7.67;6.33;;;;;21.41;55.91;101570.25;5080625;27;45368;-48
2021/07/16 03:35:13;;;;;;;;;6.00;6.00;;;;;21.41;55.98;101564.84;5081057;27;45417;-48
2021/07/16 03:37:40;;;;;;;;;7.00;7.00;;;;;21.40;56.21;101574.78;5078332;27;45378;-48
2021/07/16 03:40:09;;;;;;;;;7.00;7.00;;;;;21.39;55.98;101566.78;5063085;28;45477;-49
2021/07/16 03:42:35;;;;;;;;;7.00;6.00;;;;;21.39;56.29;101566.78;5063935;27;45461;-51
2021/07/16 03:45:01;;;;;;;;;8.67;6.00;;;;;21.37;56.37;101574.97;5082175;27;45910;-47
2021/07/16 03:47:26;;;;;;;;;8.00;6.33;;;;;21.37;56.15;101576.78;5062017;27;45297;-49
2021/07/16 03:49:51;;;;;;;;;6.67;6.67;;;;;21.38;56.37;101573.13;5063448;28;47333;-47
2021/07/16 03:52:17;;;;;;;;;8.33;6.67;;;;;21.36;56.17;101575.03;5080562;27;45323;-50
2021/07/16 03:54:43;;;;;;;;;6.67;6.67;;;;;21.35;56.17;101579.56;5080721;27;45457;-48
2021/07/16 03:57:08;;;;;;;;;6.67;5.33;;;;;21.33;56.48;101572.47;5080535;27;45377;-47
2021/07/16 03:59:35;;;;;;;;;6.00;6.00;;;;;21.31;56.30;101577.97;5080722;27;47232;-50
2021/07/16 04:02:03;;;;;;;;;6.67;6.00;;;;;21.28;56.52;101571.84;5073063;27;45660;-47
2021/07/16 04:04:28;;;;;;;;;7.00;5.00;;;;;21.23;56.97;101565.81;5080646;27;45381;-48
2021/07/16 04:06:56;;;;;;;;;6.67;6.33;;;;;21.20;56.58;101569.53;5080613;27;45443;-47
2021/07/16 04:09:29;;;;;;;;;7.00;7.00;;;;;21.16;57.22;101571.50;5080623;27;47369;-49
2021/07/16 04:12:18;;;;;;;;;7.50;6.00;;;;;21.16;57.06;101567.94;5077129;27;45294;-51
2021/07/16 04:14:49;;;;;;;;;9.00;9.00;;;;;21.15;57.16;101564.38;5080893;27;45431;-49
2021/07/16 04:17:23;;;;;;;;;8.00;7.67;;;;;21.13;56.96;101568.09;5063283;28;45863;-49
2021/07/16 04:19:49;;;;;;;;;8.00;7.00;;;;;21.12;57.54;101569.94;5080462;27;47482;-48
2021/07/16 04:22:17;;;;;;;;;6.00;4.67;;;;;21.12;57.31;101571.75;5061971;28;45358;-51
2021/07/16 04:24:43;;;;;;;;;7.00;6.50;;;;;21.15;57.34;101577.00;5061747;27;45437;-49
2021/07/16 04:27:10;;;;;;;;;7.67;5.33;;;;;21.14;57.26;101577.94;5062372;28;45485;-47
2021/07/16 04:29:40;;;;;;;;;6.00;6.00;;;;;21.16;57.22;101582.31;5079863;27;47185;-52
2021/07/16 04:32:07;;;;;;;;;8.00;8.00;;;;;21.17;57.90;101581.34;5080608;27;45495;-48
2021/07/16 04:34:34;;;;;;;;;4.67;4.67;;;;;21.16;57.18;101581.44;5062240;28;45466;-49
2021/07/16 04:37:01;;;;;;;;;7.00;7.00;;;;;21.13;57.41;101585.19;5080362;27;45428;-47
2021/07/16 04:39:27;;;;;;;;;7.00;6.33;;;;;21.11;57.36;101586.22;5061414;28;47417;-46
2021/07/16 04:41:53;;;;;;;;;6.00;6.00;;;;;21.11;57.64;101594.31;5080075;28;45252;-47
2021/07/16 04:44:19;;;;;;;;;5.75;5.75;;;;;21.09;57.59;101589.00;5073182;28;45576;-46
2021/07/16 04:46:44;;;;;;;;;7.00;5.75;;;;;21.09;57.57;101583.59;5057740;28;45486;-46
2021/07/16 04:49:11;;;;;;;;;7.25;7.25;;;;;21.07;58.27;101593.56;5079006;27;48303;-48
2021/07/16 04:51:36;;;;;;;;;6.67;5.00;;;;;21.08;58.06;101586.34;5061904;28;45511;-47
2021/07/16 04:54:04;;;;;;;;;6.00;6.00;;;;;21.08;57.96;101586.34;5061347;28;45480;-46
2021/07/16 04:56:30;;;;;;;;;4.00;4.00;;;;;21.08;58.00;101587.22;5061861;28;45469;-46
2021/07/16 04:58:56;;;;;;;;;8.00;7.00;;;;;21.07;58.51;101588.19;5060770;28;47585;-45
2021/07/16 05:01:24;;;;;;;;;6.00;6.00;;;;;21.06;57.89;101585.56;5068419;27;45332;-47
2021/07/16 05:03:51;;;;;;;;;7.00;7.00;;;;;21.04;58.06;101591.03;5057647;28;45731;-50
2021/07/16 05:06:18;;;;;;;;;6.00;6.00;;;;;21.01;58.27;101591.22;5040400;28;45887;-46
2021/07/16 05:08:44;;;;;;;;;8.00;5.67;;;;;21.01;58.61;101596.59;5058783;28;47161;-49
2021/07/16 05:11:10;;;;;;;;;6.33;6.33;;;;;21.03;58.09;101586.59;5041360;28;45432;-48
2021/07/16 05:13:37;;;;;;;;;8.00;6.33;;;;;21.04;58.02;101591.03;5059227;28;45498;-51
2021/07/16 05:16:04;;;;;;;;;8.50;8.00;;;;;21.06;58.17;101593.66;5059524;28;45518;-47
2021/07/16 05:18:30;;;;;;;;;9.00;6.33;;;;;21.05;58.01;101584.69;5059371;28;47173;-47
2021/07/16 05:21:00;;;;;;;;;5.33;5.33;;;;;21.09;58.02;101585.44;5059005;28;45521;-47
2021/07/16 05:23:26;;;;;;;;;6.00;5.00;;;;;21.09;57.87;101594.41;5041704;28;45453;-46
2021/07/16 05:25:51;;;;;;;;;6.67;6.33;;;;;21.09;57.82;101599.78;5059076;28;45712;-48
2021/07/16 05:28:17;;;;;;;;;6.67;6.00;;;;;21.09;58.20;101598.91;5040844;28;47362;-45
2021/07/16 05:30:43;;;;;;;;;6.33;6.33;;;;;21.09;58.32;101593.53;5058631;28;46076;-47
2021/07/16 05:33:09;;;;;;;;;8.00;6.33;;;;;21.07;57.88;101596.28;5079160;28;45501;-49
2021/07/16 05:35:34;;;;;;;;;5.67;5.67;;;;;21.04;57.92;101606.38;5061287;28;45520;-48
2021/07/16 05:38:00;;;;;;;;;7.00;7.00;;;;;21.04;58.51;101604.53;5071704;28;47166;-47
2021/07/16 05:40:26;;;;;;;;;8.25;6.00;;;;;21.07;58.03;101606.19;5058855;28;45356;-50
2021/07/16 05:42:52;;;;;;;;;5.00;5.00;;;;;21.11;58.71;101605.13;5058692;28;45786;-48
2021/07/16 05:45:18;;;;;;;;;6.00;5.67;;;;;21.17;58.36;101604.78;5063594;28;45332;-48
2021/07/16 05:47:44;;;;;;;;;5.67;5.67;;;;;21.20;57.89;101607.31;5074149;27;47196;-50
2021/07/16 05:50:10;;;;;;;;;6.00;6.00;;;;;21.24;58.11;101610.75;5078566;27;45356;-47
2021/07/16 05:52:36;;;;;;;;;6.00;5.00;;;;;21.26;57.95;101615.13;5078188;27;45421;-46
2021/07/16 05:55:02;;;;;;;;;7.00;5.67;;;;;21.26;58.05;101617.84;5060947;28;45549;-48
2021/07/16 05:57:28;;;;;;;;;8.25;6.50;;;;;21.27;57.73;101618.72;5060611;28;48281;-48
2021/07/16 05:59:54;;;;;;;;;6.67;6.67;;;;;21.30;58.20;101616.72;5057851;28;45366;-51
2021/07/16 06:02:19;;;;;;;;;7.00;6.00;;;;;21.32;58.10;101624.72;5075084;27;45232;-51
2021/07/16 06:04:46;;;;;;;;;7.67;6.00;;;;;21.33;57.54;101629.19;5060575;28;45711;-52
2021/07/16 06:07:11;;;;;;;;;6.00;5.33;;;;;21.35;57.39;101635.41;5078794;27;47443;-46
2021/07/16 06:09:37;;;;;;;;;5.00;5.00;;;;;21.35;57.41;101630.00;5078952;27;45675;-48
2021/07/16 06:12:03;;;;;;;;;4.67;4.00;;;;;21.34;57.25;101631.81;5079884;27;45405;-49
2021/07/16 06:14:30;;;;;;;;;7.00;5.33;;;;;21.32;57.58;101638.22;5079520;28;45481;-47
2021/07/16 06:16:56;;;;;;;;;5.00;5.00;;;;;21.32;57.42;101636.41;5078615;27;47081;-48
2021/07/16 06:19:23;;;;;;;;;5.00;5.00;;;;;21.32;58.03;101636.41;5078712;27;45552;-47
2021/07/16 06:21:49;;;;;;;;;5.00;5.00;;;;;21.33;57.83;101640.84;5060639;28;45644;-49
2021/07/16 06:24:15;;;;;;;;;6.00;6.00;;;;;21.33;57.45;101648.94;5078566;27;45326;-51
2021/07/16 06:26:40;;;;;;;;;5.00;5.00;;;;;21.37;57.70;101655.09;5077592;27;47719;-52
2021/07/16 06:29:06;;;;;;;;;6.67;6.67;;;;;21.36;57.76;101646.13;5069984;28;45252;-49
2021/07/16 06:31:32;;;;;;;;;5.00;5.00;;;;;21.34;57.89;101647.13;5056956;28;45920;-52
2021/07/16 06:33:59;;;;;;;;;4.00;4.00;;;;;21.30;57.51;101653.66;5072187;27;45522;-46
2021/07/16 06:36:24;;;;;;;;;4.00;4.00;;;;;21.26;57.42;101657.47;5078048;27;46225;-46
2021/07/16 06:38:51;;;;;;;;;5.00;5.00;;;;;21.24;57.96;101660.22;5076232;27;45347;-48
2021/07/16 06:41:17;;;;;;;;;5.33;5.33;;;;;21.23;57.93;101666.56;5079704;27;45456;-50
2021/07/16 06:43:43;;;;;;;;;5.00;5.00;;;;;21.26;58.19;101657.47;5064978;27;45577;-49
2021/07/16 06:46:09;;;;;;;;;9.00;5.67;;;;;21.28;58.01;101663.66;5079055;27;46798;-49
2021/07/16 06:48:35;;;;;;;;;3.67;3.67;;;;;21.30;57.74;101664.44;5061247;27;45399;-52
2021/07/16 06:51:02;;;;;;;;;4.33;3.33;;;;;21.29;57.66;101670.81;5080123;27;45300;-49
2021/07/16 06:53:27;;;;;;;;;4.00;4.00;;;;;21.26;57.59;101650.25;5079637;27;45342;-52
2021/07/16 06:55:53;;;;;;;;;3.67;3.00;;;;;21.24;57.41;101662.91;5060970;28;47322;-48
2021/07/16 06:58:19;;;;;;;;;4.00;4.00;;;;;21.25;57.85;101663.78;5063784;28;44759;-51
2021/07/16 07:00:45;;;;;;;;;3.00;3.00;;;;;21.26;57.19;101677.22;5057259;28;45780;-46
2021/07/16 07:03:11;;;;;;;;;4.00;4.00;;;;;21.25;57.28;101669.19;5073120;27;45556;-46
2021/07/16 07:05:37;;;;;;;;;4.67;4.67;;;;;21.24;58.03;101679.13;5062898;28;47142;-50
2021/07/16 07:08:03;;;;;;;;;4.00;3.00;;;;;21.25;57.61;101682.69;5081268;27;45353;-49
2021/07/16 07:10:29;;;;;;;;;3.00;3.00;;;;;21.26;57.23;101684.47;5081541;27;45314;-50
2021/07/16 07:12:54;;;;;;;;;3.00;3.00;;;;;21.26;57.37;101682.63;5081557;27;45477;-51
2021/07/16 07:15:20;;;;;;;;;5.00;4.00;;;;;21.31;57.98;101682.38;5084431;27;46478;-53
2021/07/16 07:17:47;;;;;;;;;4.00;4.00;;;;;21.35;57.87;101673.19;5091438;27;45592;-53
2021/07/16 07:20:13;;;;;;;;;5.00;5.00;;;;;21.35;57.58;101690.28;5067731;28;45430;-48
2021/07/16 07:22:40;;;;;;;;;3.33;3.33;;;;;21.33;57.49;101683.19;5081613;27;45364;-52
2021/07/16 07:25:06;;;;;;;;;3.00;3.00;;;;;21.30;57.76;101676.13;5081335;27;48380;-53
2021/07/16 07:27:32;;;;;;;;;2.00;2.00;;;;;21.30;57.69;101692.31;5062938;27;45411;-51
2021/07/16 07:29:59;;;;;;;;;3.00;3.00;;;;;21.32;57.75;101687.72;5059678;28;45519;-53
2021/07/16 07:32:25;;;;;;;;;2.33;2.33;;;;;21.37;57.00;101688.38;5077710;27;45548;-53
2021/07/16 07:34:50;;;;;;;;;4.00;4.00;;;;;21.41;57.00;101686.38;5063101;28;46608;-47
2021/07/16 07:37:16;;;;;;;;;3.33;3.33;;;;;21.47;57.02;101691.47;5080002;27;45259;-50
2021/07/16 07:39:42;;;;;;;;;2.00;2.00;;;;;21.51;57.36;101681.38;5081640;27;45432;-51
2021/07/16 07:42:11;;;;;;;;;4.00;4.00;;;;;21.55;57.15;101691.06;5080515;27;45553;-48
2021/07/16 07:44:36;;;;;;;;;3.00;3.00;;;;;21.58;56.54;101688.19;5081870;27;45664;-50
2021/07/16 07:47:03;;;;;;;;;2.00;2.00;;;;;21.58;56.45;101690.88;5074606;27;45286;-52
2021/07/16 07:49:28;;;;;;;;;5.00;5.00;;;;;21.60;56.59;101691.72;5080847;27;45353;-49
2021/07/16 07:51:54;;;;;;;;;3.33;3.33;;;;;21.64;56.45;101687.88;5081167;27;45376;-53
2021/07/16 07:54:19;;;;;;;;;3.00;3.00;;;;;21.69;56.20;101683.97;5080834;27;47403;-50
2021/07/16 07:56:45;;;;;;;;;3.00;3.00;;;;;21.79;56.17;101699.72;5080417;27;45344;-52
2021/07/16 07:59:10;;;;;;;;;3.00;3.00;;;;;21.86;56.29;101693.91;5062980;28;45497;-54
2021/07/16 08:01:36;;;;;;;;;4.00;4.00;;;;;21.94;55.97;101688.06;5072977;27;45630;-50
2021/07/16 08:04:02;;;;;;;;;2.00;2.00;;;;;22.02;55.76;101699.34;5074141;28;46035;-53
2021/07/16 08:06:28;;;;;;;;;3.00;2.33;;;;;22.04;55.60;101695.59;5081002;27;45361;-48
2021/07/16 08:08:54;;;;;;;;;2.00;2.00;;;;;22.08;55.52;101706.28;5080812;27;45604;-52
2021/07/16 08:11:19;;;;;;;;;1.00;1.00;;;;;22.14;54.93;101711.38;5080804;27;45392;-48
2021/07/16 08:13:45;;;;;;;;;1.33;1.33;;;;;22.15;54.86;101713.13;5080645;27;46106;-50
2021/07/16 08:16:10;;;;;;;;;1.00;1.00;;;;;22.13;54.65;101724.03;5080121;27;45647;-53
2021/07/16 08:18:36;;;;;;;;;1.00;1.00;;;;;22.12;54.79;101724.09;5080468;27;45631;-51
2021/07/16 08:21:02;;;;;;;;;2.33;1.33;;;;;22.10;54.56;101721.47;5080399;27;45596;-52
2021/07/16 08:23:27;;;;;;;;;1.00;1.00;;;;;22.09;54.64;101724.25;5080119;27;47248;-51
2021/07/16 08:25:53;;;;;;;;;1.00;1.00;;;;;22.07;54.82;101724.34;5062378;28;45284;-48
2021/07/16 08:28:18;;;;;;;;;2.00;2.00;;;;;22.05;54.66;101723.50;5080442;27;45312;-53
2021/07/16 08:30:44;;;;;;;;;2.00;2.00;;;;;22.01;54.58;101724.66;5080638;27;45464;-49
2021/07/16 08:33:10;;;;;;;;;3.00;3.00;;;;;22.00;54.22;101722.91;5080057;27;46568;-47
2021/07/16 08:35:35;;;;;;;;;4.00;2.00;;;;;21.98;54.75;101727.53;5062116;28;45638;-54
2021/07/16 08:38:02;;;;;;;;;2.00;2.00;;;;;21.94;54.12;101726.78;5078398;27;45274;-50
2021/07/16 08:40:27;;;;;;;;;2.00;2.00;;;;;21.95;54.52;101733.94;5083354;27;45709;-49
2021/07/16 08:42:56;;;;;;;;;2.67;2.00;;;;;21.97;54.83;101731.16;5058524;28;47441;-51
2021/07/16 08:45:22;;;;;;;;;1.00;1.00;;;;;22.00;54.88;101731.88;5073076;27;45309;-51
2021/07/16 08:47:50;;;;;;;;;1.00;1.00;;;;;22.08;54.42;101736.88;5078808;27;45388;-54
2021/07/16 08:50:16;;;;;;;;;1.00;1.00;;;;;22.18;54.69;101735.44;5081714;27;45524;-51
2021/07/16 08:52:44;;;;;;;;;1.00;1.00;;;;;22.28;54.20;101738.53;5081724;27;47149;-50
2021/07/16 08:55:11;;;;;;;;;1.00;1.00;;;;;22.35;53.82;101736.34;5070690;27;44948;-51
2021/07/16 08:57:38;;;;;;;;;2.67;2.67;;;;;22.40;53.80;101739.69;5088295;27;44695;-50
2021/07/16 09:00:10;;;;;;;;;4.00;2.00;;;;;22.42;53.68;101732.38;5081329;27;45303;-52
2021/07/16 09:02:52;;;;;;;;;2.33;2.33;;;;;22.43;53.51;101736.81;5041697;28;47198;-47
2021/07/16 09:05:17;;;;;;;;;2.00;2.00;;;;;22.40;54.09;101742.41;5081425;27;45875;-50
2021/07/16 09:07:47;;;;;;;;;2.33;2.33;;;;;22.42;53.86;101740.47;5080599;28;45350;-51
2021/07/16 09:10:13;;;;;;;;;5.00;3.33;;;;;22.48;53.77;101746.41;5072560;27;45404;-49
2021/07/16 09:12:39;;;;;;;;;2.67;2.67;;;;;22.53;53.60;101749.75;5079992;27;47169;-52
2021/07/16 09:15:17;;;;;;;;;5.00;4.33;;;;;22.54;53.57;101753.34;5077378;27;45338;-53
2021/07/16 09:17:45;;;;;;;;;4.33;4.33;;;;;22.48;53.64;101756.34;5063438;28;45464;-50
2021/07/16 09:20:24;;;;;;;;;4.33;3.67;;;;;22.38;53.51;101758.72;5059597;28;45391;-52
2021/07/16 09:23:10;;;;;;;;;4.00;4.00;;;;;22.28;53.15;101755.63;5077460;27;47380;-50
2021/07/16 09:25:37;;;;;;;;;4.00;4.00;;;;;22.18;53.34;101751.66;5069624;28;45691;-51
2021/07/16 09:28:03;;;;;;;;;5.00;5.00;;;;;22.11;53.77;101750.28;5078810;27;45384;-49
2021/07/16 09:30:30;;;;;;;;;4.67;4.67;;;;;22.08;53.47;101750.41;5079921;27;45387;-50
2021/07/16 09:32:58;;;;;;;;;4.67;4.67;;;;;22.06;54.12;101752.31;5060719;27;47182;-50
2021/07/16 09:35:23;;;;;;;;;3.00;3.00;;;;;22.09;53.97;101752.16;5079689;27;45750;-52
2021/07/16 09:38:12;;;;;;;;;4.67;4.33;;;;;22.13;53.86;101751.06;5076831;27;45418;-46
2021/07/16 09:40:45;;;;;;;;;3.67;3.67;;;;;22.17;53.87;101754.47;5082281;27;45638;-51
2021/07/16 09:43:11;;;;;;;;;6.33;6.00;;;;;22.20;53.55;101757.00;5080105;27;46808;-51
2021/07/16 09:45:42;;;;;;;;;4.00;4.00;;;;;22.24;53.75;101754.06;5078208;27;45753;-51
2021/07/16 09:48:28;;;;;;;;;6.00;6.00;;;;;22.30;53.69;101763.66;5054085;28;45331;-50
2021/07/16 09:51:13;;;;;;;;;6.00;5.00;;;;;22.42;53.69;101763.00;5078983;27;45847;-49
2021/07/16 09:54:03;;;;;;;;;5.00;5.00;;;;;22.55;53.26;101755.06;5080336;27;47453;-51
2021/07/16 09:56:34;;;;;;;;;7.33;5.33;;;;;22.61;52.76;101760.13;5069480;28;45296;-52
2021/07/16 09:59:08;;;;;;;;;4.00;4.00;;;;;22.57;52.80;101759.44;5077820;27;45286;-53
2021/07/16 10:01:39;;;;;;;;;5.67;5.67;;;;;22.52;52.63;101760.66;5071860;27;45291;-47
2021/07/16 10:04:23;;;;;;;;;5.33;4.67;;;;;22.54;52.71;101759.63;5062079;28;45417;-49
2021/07/16 10:06:53;;;;;;;;;6.33;6.33;;;;;22.51;52.50;101767.91;5064198;27;45419;-53
2021/07/16 10:09:20;;;;;;;;;5.67;5.67;;;;;22.46;52.20;101769.09;5025767;28;45406;-50
2021/07/16 10:11:52;;;;;;;;;4.67;4.67;;;;;22.40;52.41;101773.03;5059331;28;45411;-54
2021/07/16 10:14:19;;;;;;;;;4.67;4.67;;;;;22.36;52.44;101775.97;5081084;28;47837;-52
2021/07/16 10:16:46;;;;;;;;;5.00;5.00;;;;;22.31;52.59;101777.09;5076994;27;45314;-53
2021/07/16 10:19:14;;;;;;;;;4.33;4.33;;;;;22.29;52.28;101784.41;5079911;27;45708;-49
2021/07/16 10:21:40;;;;;;;;;7.67;6.00;;;;;22.30;52.70;101783.47;5079608;27;45433;-48
2021/07/16 10:24:07;;;;;;;;;7.67;7.67;;;;;22.33;52.40;101786.00;5079585;27;47404;-51
2021/07/16 10:26:33;;;;;;;;;6.00;5.67;;;;;22.29;52.65;101781.72;5060301;28;45620;-53
2021/07/16 10:28:58;;;;;;;;;8.00;8.00;;;;;22.25;52.24;101790.97;5041845;27;45522;-49
2021/07/16 10:31:33;;;;;;;;;9.00;9.00;;;;;22.20;52.38;101787.59;5078635;27;45603;-47
2021/07/16 10:34:00;;;;;;;;;9.33;9.33;;;;;22.15;52.60;101795.09;5078244;27;45476;-48
2021/07/16 10:36:38;;;;;;;;;9.33;9.33;;;;;22.14;52.20;101800.59;5078210;27;46023;-49
2021/07/16 10:39:06;;;;;;;;;7.75;7.50;;;;;22.11;52.27;101801.63;5080834;27;46832;-50
2021/07/16 10:41:38;;;;;;;;;10.00;9.00;;;;;22.08;52.71;101809.88;5064051;28;45323;-48
2021/07/16 10:44:11;;;;;;;;;11.50;9.25;;;;;22.07;52.38;101805.44;5083006;27;47874;-46
2021/07/16 10:46:39;;;;;;;;;9.67;9.67;;;;;22.06;52.17;101810.94;5063386;28;45691;-49
2021/07/16 10:49:08;;;;;;;;;7.67;6.67;;;;;22.09;52.03;101811.63;5061959;28;45378;-47
2021/07/16 10:51:35;;;;;;;;;11.00;10.67;;;;;22.12;51.99;101811.50;5064554;28;45334;-48
2021/07/16 10:54:04;;;;;;;;;9.67;9.67;;;;;22.13;51.86;101802.44;5081709;27;47549;-48
2021/07/16 10:56:46;;;;;;;;;11.33;11.00;;;;;22.14;52.18;101811.41;5060596;28;45492;-51
2021/07/16 10:59:44;;;;;;;;;11.67;10.33;;;;;22.15;51.73;101814.03;5052249;28;45332;-50
2021/07/16 11:02:38;;;;;;;;;13.00;11.75;;;;;22.18;52.27;101821.97;5074201;27;45592;-52
2021/07/16 11:05:32;;;;;;;;;7.00;7.00;;;;;22.22;51.75;101825.38;5081886;27;46203;-48
2021/07/16 11:07:58;;;;;;;;;9.67;8.67;;;;;22.25;51.85;101825.25;5081231;27;45416;-51
2021/07/16 11:10:46;;;;;;;;;9.25;8.75;;;;;22.23;51.17;101822.63;5063349;28;45473;-52
2021/07/16 11:13:34;;;;;;;;;8.67;7.67;;;;;22.21;51.00;101821.81;5081829;27;45389;-49
2021/07/16 11:16:31;;;;;;;;;10.33;10.33;;;;;22.22;50.97;101818.13;5081461;27;47148;-49
2021/07/16 11:19:04;;;;;;;;;10.00;8.67;;;;;22.31;51.45;101814.94;5075215;27;45538;-51
2021/07/16 11:21:39;;;;;;;;;11.00;10.00;;;;;22.37;51.02;101813.78;5064063;27;45288;-51
2021/07/16 11:24:22;;;;;;;;;7.67;7.67;;;;;22.50;50.87;101816.69;5061127;28;45542;-48
2021/07/16 11:27:12;;;;;;;;;8.67;8.00;;;;;22.62;50.91;101813.31;5081216;27;46015;-50